Terminal Aerodrome Forecast
Issued by NWS

Current Version | Previous Version | Text Only | Print | Product List | Glossary On
Versions: 1 2 3 4 5 6 7 8 9 10 11 12 13 14 15 16
000
FTUS42 KTAE 271721
TAFDHN
TAF
KDHN 271721Z 2718/2818 04005KT P6SM SCT100 OVC250
     FM280500 07007KT 4SM RA OVC025
     FM281500 09010KT P6SM RA OVC015=

USA.gov is the U.S. government's official web portal to all federal, state and local government web resources and services.